Time;durP1;ratioP1;P1;durP2;ratioP2;P2;SDS_P1;SDS_P2;PMS_P1;PMS_P2;Temp;Humidity;BMP_temperature;BMP_pressure;BME280_temperature;BME280_humidity;BME280_pressure;Samples;Min_cycle;Max_cycle;Signal;HPM_P1;HPM_P2
2023/02/19 00:00:44;;;;;;;1.60;1.50;;;;;;;;;;5093314;28;21114;-74
2023/02/19 00:03:21;;;;;;;2.80;2.60;;;;;;;;;;5096206;28;20225;-73
2023/02/19 00:05:54;;;;;;;1.65;1.55;;;;;;;;;;5093972;28;20330;-74
2023/02/19 00:08:22;;;;;;;1.02;1.02;;;;;;;;;;5094978;28;20224;-73
2023/02/19 00:11:03;;;;;;;2.80;2.60;;;;;;;;;;5096031;28;20298;-73
2023/02/19 00:13:35;;;;;;;1.73;1.63;;;;;;;;;;5094017;28;20238;-73
2023/02/19 00:18:54;;;;;;;1.20;1.17;;;;;;;;;;5095736;28;20207;-73
2023/02/19 00:21:25;;;;;;;1.23;1.23;;;;;;;;;;5100517;28;20277;-73
2023/02/19 00:23:53;;;;;;;1.83;1.73;;;;;;;;;;5100735;28;20221;-73
2023/02/19 00:26:25;;;;;;;1.65;1.55;;;;;;;;;;5099926;28;20244;-73
2023/02/19 00:28:54;;;;;;;1.95;1.85;;;;;;;;;;5099728;28;20309;-72
2023/02/19 00:31:24;;;;;;;0.70;0.70;;;;;;;;;;5100811;28;20231;-73
2023/02/19 00:33:52;;;;;;;3.13;2.92;;;;;;;;;;5100759;28;20231;-73
2023/02/19 00:36:20;;;;;;;1.52;1.42;;;;;;;;;;5100767;28;20224;-72
2023/02/19 00:38:53;;;;;;;1.60;1.50;;;;;;;;;;5100377;28;20274;-73
2023/02/19 00:41:25;;;;;;;0.98;0.98;;;;;;;;;;5100391;28;20227;-72
2023/02/19 00:43:56;;;;;;;1.83;1.73;;;;;;;;;;5100107;28;20224;-72
2023/02/19 00:46:34;;;;;;;1.90;1.80;;;;;;;;;;5100187;28;20542;-73
2023/02/19 00:49:01;;;;;;;1.67;1.58;;;;;;;;;;5100441;28;20364;-73
2023/02/19 00:51:30;;;;;;;1.05;1.05;;;;;;;;;;5100695;28;20619;-73
2023/02/19 00:54:00;;;;;;;1.33;1.30;;;;;;;;;;5100769;28;20283;-73
2023/02/19 00:56:42;;;;;;;1.48;1.42;;;;;;;;;;5099789;28;20231;-73
2023/02/19 00:59:22;;;;;;;1.80;1.70;;;;;;;;;;5100958;28;20224;-71
2023/02/19 01:01:52;;;;;;;0.70;0.70;;;;;;;;;;5099964;28;20220;-73
2023/02/19 01:04:20;;;;;;;3.15;2.95;;;;;;;;;;5098539;28;20232;-72
2023/02/19 01:06:59;;;;;;;0.98;0.98;;;;;;;;;;5098651;28;20252;-72
2023/02/19 01:09:28;;;;;;;2.03;1.92;;;;;;;;;;5100286;28;20703;-74
2023/02/19 01:11:56;;;;;;;1.50;1.42;;;;;;;;;;5097619;28;20235;-73
2023/02/19 01:14:23;;;;;;;1.00;1.00;;;;;;;;;;5105905;28;20212;-73
2023/02/19 01:16:54;;;;;;;1.00;1.00;;;;;;;;;;5120078;28;20211;-73
2023/02/19 01:19:22;;;;;;;1.63;1.52;;;;;;;;;;5120274;28;20229;-73
2023/02/19 01:21:56;;;;;;;1.88;1.77;;;;;;;;;;5120125;28;20250;-73
2023/02/19 01:24:24;;;;;;;1.48;1.38;;;;;;;;;;5120193;28;20223;-73
2023/02/19 01:26:53;;;;;;;1.85;1.75;;;;;;;;;;5119263;28;20241;-73
2023/02/19 01:29:21;;;;;;;1.25;1.23;;;;;;;;;;5119709;28;20287;-73
2023/02/19 01:31:48;;;;;;;0.90;0.90;;;;;;;;;;5118484;28;20589;-73
2023/02/19 01:34:16;;;;;;;1.05;1.05;;;;;;;;;;5119688;28;20240;-73
2023/02/19 01:36:44;;;;;;;1.98;1.88;;;;;;;;;;5120429;28;20274;-73
2023/02/19 01:39:12;;;;;;;1.25;1.25;;;;;;;;;;5120644;28;20231;-73
2023/02/19 01:41:40;;;;;;;1.25;1.23;;;;;;;;;;5120281;28;20215;-73
2023/02/19 01:44:29;;;;;;;1.20;1.10;;;;;;;;;;5120135;28;20224;-73
2023/02/19 01:46:57;;;;;;;0.90;0.90;;;;;;;;;;5078884;28;20632;-73
2023/02/19 01:49:26;;;;;;;3.85;3.55;;;;;;;;;;5079298;28;20532;-73
2023/02/19 01:51:59;;;;;;;0.93;0.93;;;;;;;;;;5079510;28;20234;-73
2023/02/19 01:54:29;;;;;;;2.47;2.28;;;;;;;;;;5078770;28;20306;-73
2023/02/19 01:56:58;;;;;;;1.73;1.63;;;;;;;;;;5079133;28;20522;-74
2023/02/19 01:59:27;;;;;;;1.65;1.55;;;;;;;;;;5078782;28;20691;-74
2023/02/19 02:01:54;;;;;;;0.90;0.90;;;;;;;;;;5078473;28;20609;-73
2023/02/19 02:04:25;;;;;;;1.45;1.35;;;;;;;;;;5079141;28;20535;-73
2023/02/19 02:06:54;;;;;;;0.90;0.90;;;;;;;;;;5078575;28;20300;-74
2023/02/19 02:12:08;;;;;;;0.98;0.98;;;;;;;;;;5079138;28;20290;-74
2023/02/19 02:14:38;;;;;;;2.35;2.25;;;;;;;;;;5078974;28;20233;-73
2023/02/19 02:17:15;;;;;;;0.90;0.90;;;;;;;;;;5078947;28;20572;-74
2023/02/19 02:19:59;;;;;;;1.38;1.30;;;;;;;;;;5078830;28;20224;-74
2023/02/19 02:22:29;;;;;;;1.77;1.67;;;;;;;;;;5078395;28;20221;-74
2023/02/19 02:25:06;;;;;;;0.90;0.90;;;;;;;;;;5078761;28;20236;-74
2023/02/19 02:27:41;;;;;;;1.08;1.08;;;;;;;;;;5078641;28;20258;-74
2023/02/19 02:30:24;;;;;;;1.33;1.25;;;;;;;;;;5078510;28;20235;-73
2023/02/19 02:32:57;;;;;;;1.58;1.48;;;;;;;;;;5075934;28;20280;-73
2023/02/19 02:35:26;;;;;;;1.13;1.13;;;;;;;;;;5078242;28;20495;-74
2023/02/19 02:37:56;;;;;;;1.15;1.13;;;;;;;;;;5078570;28;20225;-74
2023/02/19 02:40:26;;;;;;;1.45;1.35;;;;;;;;;;5078680;28;20232;-73
2023/02/19 02:42:59;;;;;;;1.65;1.55;;;;;;;;;;5078477;28;20241;-74
2023/02/19 02:45:37;;;;;;;1.27;1.23;;;;;;;;;;5078865;28;20260;-73
2023/02/19 02:48:22;;;;;;;1.05;1.05;;;;;;;;;;5078413;28;20242;-73
2023/02/19 02:50:52;;;;;;;1.60;1.50;;;;;;;;;;5078381;28;20625;-74
2023/02/19 02:56:12;;;;;;;1.08;1.08;;;;;;;;;;5078191;28;20219;-73
2023/02/19 02:58:39;;;;;;;1.60;1.50;;;;;;;;;;5078277;28;20226;-74
2023/02/19 03:03:58;;;;;;;1.35;1.25;;;;;;;;;;5078219;28;20492;-73
2023/02/19 03:06:27;;;;;;;0.70;0.70;;;;;;;;;;5102011;28;20234;-74
2023/02/19 03:08:57;;;;;;;0.90;0.90;;;;;;;;;;5118711;28;20220;-74
2023/02/19 03:19:57;;;;;;;0.80;0.80;;;;;;;;;;5118184;28;20220;-74
2023/02/19 03:22:26;;;;;;;3.40;3.20;;;;;;;;;;5118082;28;20612;-74
2023/02/19 03:27:42;;;;;;;1.65;1.55;;;;;;;;;;5118774;28;20238;-74
2023/02/19 03:30:12;;;;;;;1.80;1.70;;;;;;;;;;5117975;28;20256;-73
2023/02/19 03:32:43;;;;;;;1.83;1.73;;;;;;;;;;5118605;28;20280;-73
2023/02/19 03:35:14;;;;;;;1.98;1.88;;;;;;;;;;5117695;28;20233;-74
2023/02/19 03:37:44;;;;;;;3.03;2.83;;;;;;;;;;5118531;28;20233;-73
2023/02/19 03:40:12;;;;;;;1.35;1.25;;;;;;;;;;5118206;28;20305;-74
2023/02/19 03:42:43;;;;;;;2.60;2.40;;;;;;;;;;5118530;28;20229;-73
2023/02/19 03:45:28;;;;;;;1.60;1.50;;;;;;;;;;5115283;28;20220;-74
2023/02/19 03:48:03;;;;;;;0.90;0.80;;;;;;;;;;5096984;28;20249;-74
2023/02/19 03:50:42;;;;;;;1.05;0.95;;;;;;;;;;5098940;28;20602;-74
2023/02/19 03:53:18;;;;;;;1.25;1.15;;;;;;;;;;5098815;28;20224;-74
2023/02/19 03:55:51;;;;;;;1.48;1.38;;;;;;;;;;5100805;28;20232;-73
2023/02/19 03:58:23;;;;;;;1.25;1.15;;;;;;;;;;5103023;28;20224;-74
2023/02/19 04:01:12;;;;;;;1.50;1.40;;;;;;;;;;5100472;28;20505;-71
2023/02/19 04:03:57;;;;;;;1.80;1.70;;;;;;;;;;5097037;28;20316;-72
2023/02/19 04:06:30;;;;;;;1.00;0.90;;;;;;;;;;5093828;28;20351;-72
2023/02/19 04:08:59;;;;;;;1.80;1.70;;;;;;;;;;5099732;28;20218;-73
2023/02/19 04:11:28;;;;;;;1.75;1.65;;;;;;;;;;5100701;28;20225;-73
2023/02/19 04:13:57;;;;;;;0.95;0.85;;;;;;;;;;5083992;28;20223;-72
2023/02/19 04:16:27;;;;;;;1.13;1.02;;;;;;;;;;5080666;28;20232;-73
2023/02/19 04:18:56;;;;;;;0.90;0.90;;;;;;;;;;5080690;28;20226;-73
2023/02/19 04:21:24;;;;;;;1.38;1.27;;;;;;;;;;5081584;28;20223;-73
2023/02/19 04:23:53;;;;;;;2.15;2.00;;;;;;;;;;5081321;28;20226;-73
2023/02/19 04:26:22;;;;;;;1.35;1.25;;;;;;;;;;5080913;28;20583;-73
2023/02/19 04:28:50;;;;;;;1.27;1.17;;;;;;;;;;5080452;28;20241;-73
2023/02/19 04:31:18;;;;;;;1.67;1.58;;;;;;;;;;5080213;28;20227;-73
2023/02/19 04:33:48;;;;;;;3.63;3.42;;;;;;;;;;5082652;28;20234;-73
2023/02/19 04:36:16;;;;;;;1.02;0.93;;;;;;;;;;5100570;28;20224;-73
2023/02/19 04:38:44;;;;;;;3.05;2.85;;;;;;;;;;5100158;28;20222;-73
2023/02/19 04:41:12;;;;;;;1.17;1.08;;;;;;;;;;5100318;28;20220;-73
2023/02/19 04:43:40;;;;;;;1.98;1.88;;;;;;;;;;5100753;28;20219;-73
2023/02/19 04:46:08;;;;;;;1.50;1.40;;;;;;;;;;5100203;28;20255;-73
2023/02/19 04:48:35;;;;;;;1.50;1.40;;;;;;;;;;5099967;28;20525;-73
2023/02/19 04:51:06;;;;;;;1.25;1.15;;;;;;;;;;5100735;28;20227;-73
2023/02/19 04:53:34;;;;;;;1.90;1.80;;;;;;;;;;5099962;28;20254;-73
2023/02/19 04:56:06;;;;;;;1.02;0.93;;;;;;;;;;5100111;28;20228;-73
2023/02/19 04:58:35;;;;;;;1.40;1.30;;;;;;;;;;5100150;28;20298;-73
2023/02/19 05:01:03;;;;;;;1.60;1.50;;;;;;;;;;5099542;28;20281;-73
2023/02/19 05:03:30;;;;;;;1.00;0.90;;;;;;;;;;5094816;28;20601;-73
2023/02/19 05:06:03;;;;;;;1.27;1.17;;;;;;;;;;5079641;28;20222;-72
2023/02/19 05:08:30;;;;;;;1.45;1.35;;;;;;;;;;5086214;28;20242;-73
2023/02/19 05:10:59;;;;;;;1.98;1.88;;;;;;;;;;5093931;28;20565;-73
2023/02/19 05:13:26;;;;;;;1.27;1.17;;;;;;;;;;5101418;28;20226;-73
2023/02/19 05:15:59;;;;;;;2.28;2.15;;;;;;;;;;5100098;28;20617;-72
2023/02/19 05:18:27;;;;;;;1.13;1.02;;;;;;;;;;5100774;28;20228;-73
2023/02/19 05:20:55;;;;;;;1.25;1.15;;;;;;;;;;5096407;28;20622;-72
2023/02/19 05:23:23;;;;;;;1.52;1.42;;;;;;;;;;5080665;28;20226;-73
2023/02/19 05:25:50;;;;;;;1.55;1.45;;;;;;;;;;5080325;28;20239;-74
2023/02/19 05:28:18;;;;;;;1.35;1.25;;;;;;;;;;5097667;28;20242;-73
2023/02/19 05:30:46;;;;;;;1.38;1.27;;;;;;;;;;5099375;28;20580;-73
2023/02/19 05:33:15;;;;;;;1.42;1.33;;;;;;;;;;5080336;28;20244;-71
2023/02/19 05:35:43;;;;;;;1.90;1.80;;;;;;;;;;5080104;28;20224;-73
2023/02/19 05:38:14;;;;;;;1.33;1.23;;;;;;;;;;5079973;28;20237;-73
2023/02/19 05:40:45;;;;;;;1.65;1.55;;;;;;;;;;5080193;28;20291;-73
2023/02/19 05:43:13;;;;;;;0.80;0.80;;;;;;;;;;5090487;28;20234;-72
2023/02/19 05:45:41;;;;;;;1.50;1.40;;;;;;;;;;5099769;28;20606;-72
2023/02/19 05:48:09;;;;;;;1.17;1.08;;;;;;;;;;5099947;28;20241;-72
2023/02/19 05:50:38;;;;;;;2.28;2.13;;;;;;;;;;5099928;28;20732;-72
2023/02/19 05:53:06;;;;;;;1.55;1.45;;;;;;;;;;5099730;28;20223;-73
2023/02/19 05:55:35;;;;;;;1.30;1.20;;;;;;;;;;5099569;28;20237;-73
2023/02/19 05:58:03;;;;;;;2.15;1.98;;;;;;;;;;5100008;28;20220;-73
2023/02/19 06:00:32;;;;;;;1.80;1.70;;;;;;;;;;5099316;28;20259;-73
2023/02/19 06:03:00;;;;;;;1.63;1.52;;;;;;;;;;5098294;28;20264;-73
2023/02/19 06:05:28;;;;;;;1.10;1.00;;;;;;;;;;5094413;28;20238;-73
2023/02/19 06:07:57;;;;;;;1.83;1.73;;;;;;;;;;5099788;28;20257;-73
2023/02/19 06:10:27;;;;;;;1.00;0.90;;;;;;;;;;5099833;28;20229;-72
2023/02/19 06:12:54;;;;;;;0.90;0.80;;;;;;;;;;5099959;28;20223;-73
2023/02/19 06:15:22;;;;;;;0.90;0.80;;;;;;;;;;5100230;28;20215;-72
2023/02/19 06:17:50;;;;;;;3.30;3.05;;;;;;;;;;5099488;28;20280;-73
2023/02/19 06:20:17;;;;;;;0.90;0.80;;;;;;;;;;5100381;28;20286;-72
2023/02/19 06:22:48;;;;;;;1.52;1.42;;;;;;;;;;5100044;28;20223;-73
2023/02/19 06:25:17;;;;;;;1.00;0.90;;;;;;;;;;5098703;28;20497;-73
2023/02/19 06:27:45;;;;;;;1.88;1.77;;;;;;;;;;5099948;28;20631;-73
2023/02/19 06:30:19;;;;;;;1.83;1.73;;;;;;;;;;5099638;28;20576;-73
2023/02/19 06:32:47;;;;;;;1.40;1.30;;;;;;;;;;5099498;28;20229;-72
2023/02/19 06:35:15;;;;;;;0.90;0.80;;;;;;;;;;5099269;28;20598;-73
2023/02/19 06:37:42;;;;;;;1.52;1.42;;;;;;;;;;5085537;28;20224;-73
2023/02/19 06:40:12;;;;;;;1.35;1.25;;;;;;;;;;5079667;28;20229;-72
2023/02/19 06:42:41;;;;;;;1.42;1.33;;;;;;;;;;5079221;28;20236;-72
2023/02/19 06:45:09;;;;;;;1.00;0.90;;;;;;;;;;5079793;28;20603;-73
2023/02/19 06:47:37;;;;;;;2.95;2.75;;;;;;;;;;5082146;28;20245;-72
2023/02/19 06:50:04;;;;;;;5.22;4.85;;;;;;;;;;5099073;28;20615;-72
2023/02/19 06:52:32;;;;;;;1.40;1.30;;;;;;;;;;5087291;28;20234;-72
2023/02/19 06:55:01;;;;;;;1.08;0.98;;;;;;;;;;5079061;28;20615;-72
2023/02/19 06:57:28;;;;;;;1.30;1.20;;;;;;;;;;5091177;28;20227;-72
2023/02/19 06:59:59;;;;;;;2.63;2.42;;;;;;;;;;5099052;28;20261;-72
2023/02/19 07:02:26;;;;;;;1.17;1.08;;;;;;;;;;5098783;28;20218;-72
2023/02/19 07:04:57;;;;;;;1.65;1.55;;;;;;;;;;5097083;28;20227;-72
2023/02/19 07:07:24;;;;;;;1.33;1.23;;;;;;;;;;5077950;28;20235;-72
2023/02/19 07:09:52;;;;;;;1.77;1.67;;;;;;;;;;5077493;28;20229;-72
2023/02/19 07:12:19;;;;;;;1.52;1.42;;;;;;;;;;5086293;28;20226;-72
2023/02/19 07:14:47;;;;;;;2.60;2.40;;;;;;;;;;5097291;28;20228;-72
2023/02/19 07:17:16;;;;;;;2.47;2.28;;;;;;;;;;5096661;28;20267;-72
2023/02/19 07:19:44;;;;;;;2.55;2.35;;;;;;;;;;5095786;28;20234;-72
2023/02/19 07:22:11;;;;;;;1.80;1.67;;;;;;;;;;5097424;28;20228;-72
2023/02/19 07:24:39;;;;;;;1.48;1.38;;;;;;;;;;5081055;28;20228;-72
2023/02/19 07:27:07;;;;;;;1.02;0.93;;;;;;;;;;5077863;28;20219;-72
2023/02/19 07:29:36;;;;;;;1.73;1.63;;;;;;;;;;5076821;28;20612;-71
2023/02/19 07:32:03;;;;;;;1.27;1.17;;;;;;;;;;5077280;28;20322;-73
2023/02/19 07:34:32;;;;;;;1.48;1.38;;;;;;;;;;5096945;28;20268;-73
2023/02/19 07:37:00;;;;;;;1.30;1.20;;;;;;;;;;5097737;28;20225;-73
2023/02/19 07:39:27;;;;;;;2.03;1.92;;;;;;;;;;5097909;28;20219;-73
2023/02/19 07:41:55;;;;;;;2.17;2.08;;;;;;;;;;5097758;28;20230;-73
2023/02/19 07:44:22;;;;;;;2.05;1.95;;;;;;;;;;5077446;28;20224;-73
2023/02/19 07:46:50;;;;;;;1.63;1.52;;;;;;;;;;5077734;28;20317;-73
2023/02/19 07:49:18;;;;;;;2.17;2.08;;;;;;;;;;5077697;28;20308;-73
2023/02/19 07:51:47;;;;;;;1.33;1.23;;;;;;;;;;5077059;28;20234;-72
2023/02/19 07:54:15;;;;;;;1.17;1.08;;;;;;;;;;5079015;28;20589;-73
2023/02/19 07:56:42;;;;;;;1.33;1.23;;;;;;;;;;5094993;28;20227;-73
2023/02/19 07:59:10;;;;;;;1.48;1.38;;;;;;;;;;5091594;28;20482;-73
2023/02/19 08:04:24;;;;;;;1.70;1.60;;;;;;;;;;5078384;28;20318;-71
2023/02/19 08:06:53;;;;;;;1.13;1.02;;;;;;;;;;5090735;28;20225;-72
2023/02/19 08:09:21;;;;;;;1.30;1.20;;;;;;;;;;5091725;28;20236;-73
2023/02/19 08:14:33;;;;;;;1.55;1.45;;;;;;;;;;5093682;28;20227;-73
2023/02/19 08:17:02;;;;;;;1.83;1.73;;;;;;;;;;5079716;28;20581;-73
2023/02/19 08:19:29;;;;;;;2.88;2.70;;;;;;;;;;5088858;28;20278;-73
2023/02/19 08:21:59;;;;;;;2.78;2.58;;;;;;;;;;5092625;28;20231;-72
2023/02/19 08:24:36;;;;;;;1.50;1.40;;;;;;;;;;5094708;28;20282;-72
2023/02/19 08:27:07;;;;;;;2.35;2.25;;;;;;;;;;5091710;28;20542;-72
2023/02/19 08:29:37;;;;;;;2.38;2.28;;;;;;;;;;5079033;28;20309;-72
2023/02/19 08:32:09;;;;;;;2.55;2.40;;;;;;;;;;5078461;28;20236;-73
2023/02/19 08:34:37;;;;;;;2.03;1.92;;;;;;;;;;5079161;28;20228;-72
2023/02/19 08:37:12;;;;;;;2.35;2.25;;;;;;;;;;5074506;28;20230;-72
2023/02/19 08:39:48;;;;;;;1.30;1.20;;;;;;;;;;5090632;28;20623;-73
2023/02/19 08:42:18;;;;;;;2.15;2.05;;;;;;;;;;5098721;28;20686;-73
2023/02/19 08:44:47;;;;;;;1.20;1.10;;;;;;;;;;5098622;28;20229;-72
2023/02/19 08:47:21;;;;;;;4.70;4.40;;;;;;;;;;5097729;28;20602;-72
2023/02/19 08:49:51;;;;;;;4.05;3.83;;;;;;;;;;5092500;28;20244;-72
2023/02/19 08:52:23;;;;;;;3.47;3.28;;;;;;;;;;5091526;28;20236;-72
2023/02/19 08:54:57;;;;;;;5.85;5.45;;;;;;;;;;5092402;28;20213;-73
2023/02/19 08:57:25;;;;;;;1.92;1.83;;;;;;;;;;5082914;28;20235;-73
2023/02/19 08:59:56;;;;;;;2.20;2.10;;;;;;;;;;5070059;28;20220;-71
2023/02/19 09:02:28;;;;;;;1.15;1.15;;;;;;;;;;5095580;28;20249;-72
2023/02/19 09:04:57;;;;;;;3.03;2.85;;;;;;;;;;5088986;28;20302;-73
2023/02/19 09:07:26;;;;;;;3.08;2.88;;;;;;;;;;5078045;28;20222;-73
2023/02/19 09:09:54;;;;;;;2.83;2.72;;;;;;;;;;5073169;28;20245;-73
2023/02/19 09:12:22;;;;;;;2.60;2.50;;;;;;;;;;5056844;28;20610;-73
2023/02/19 09:14:54;;;;;;;1.95;1.85;;;;;;;;;;5057508;28;20296;-73
2023/02/19 09:17:22;;;;;;;3.25;3.15;;;;;;;;;;5057608;28;20222;-74
2023/02/19 09:19:50;;;;;;;2.50;2.40;;;;;;;;;;5057006;28;20228;-72
2023/02/19 09:22:17;;;;;;;2.35;2.25;;;;;;;;;;5056541;28;20249;-74
2023/02/19 09:24:47;;;;;;;1.77;1.67;;;;;;;;;;5056480;28;20261;-74
2023/02/19 09:27:16;;;;;;;2.92;2.80;;;;;;;;;;5076350;28;20784;-74
2023/02/19 09:29:45;;;;;;;1.30;1.30;;;;;;;;;;5075157;28;20226;-74
2023/02/19 09:32:15;;;;;;;1.23;1.23;;;;;;;;;;5063459;28;20223;-71
2023/02/19 09:34:49;;;;;;;2.25;2.15;;;;;;;;;;5076179;28;20239;-72
2023/02/19 09:37:29;;;;;;;1.10;1.10;;;;;;;;;;5068211;28;20235;-72
2023/02/19 09:40:01;;;;;;;2.55;2.45;;;;;;;;;;5058334;28;20217;-73
2023/02/19 09:42:35;;;;;;;2.28;2.17;;;;;;;;;;5069383;28;20224;-72
2023/02/19 09:45:10;;;;;;;2.60;2.50;;;;;;;;;;5073138;28;20322;-74
2023/02/19 09:47:51;;;;;;;3.10;2.92;;;;;;;;;;5075084;28;20698;-72
2023/02/19 09:50:32;;;;;;;1.27;1.27;;;;;;;;;;5078554;28;20525;-72
2023/02/19 09:53:15;;;;;;;5.25;4.95;;;;;;;;;;5076806;28;20311;-71
2023/02/19 09:56:02;;;;;;;1.23;1.23;;;;;;;;;;5078334;28;20224;-72
2023/02/19 09:58:34;;;;;;;3.25;3.05;;;;;;;;;;5075635;28;20221;-74
2023/02/19 10:01:12;;;;;;;1.90;1.80;;;;;;;;;;5076629;28;20220;-75
2023/02/19 10:03:42;;;;;;;2.40;2.30;;;;;;;;;;5079227;28;20236;-72
2023/02/19 10:06:15;;;;;;;0.90;0.90;;;;;;;;;;5079862;28;20311;-74
2023/02/19 10:11:42;;;;;;;2.90;2.78;;;;;;;;;;5081316;28;20633;-74
2023/02/19 10:14:20;;;;;;;3.03;2.83;;;;;;;;;;5090480;28;20740;-73
2023/02/19 10:17:10;;;;;;;2.15;2.05;;;;;;;;;;5094813;28;20231;-73
2023/02/19 10:19:40;;;;;;;1.35;1.35;;;;;;;;;;5096241;28;20212;-74
2023/02/19 10:22:11;;;;;;;0.95;0.95;;;;;;;;;;5089309;28;20610;-73
2023/02/19 10:24:42;;;;;;;3.45;3.25;;;;;;;;;;5094703;28;20236;-73
2023/02/19 10:29:55;;;;;;;4.20;4.00;;;;;;;;;;5098298;28;20280;-74
2023/02/19 10:32:25;;;;;;;2.80;2.70;;;;;;;;;;5098367;28;20228;-72
2023/02/19 10:35:22;;;;;;;3.65;3.45;;;;;;;;;;5098491;28;20215;-73
2023/02/19 10:37:53;;;;;;;5.80;5.47;;;;;;;;;;5098776;28;20235;-74
2023/02/19 10:40:27;;;;;;;2.38;2.28;;;;;;;;;;5096168;28;20221;-73
2023/02/19 10:43:00;;;;;;;2.38;2.28;;;;;;;;;;5089198;28;20282;-72
2023/02/19 10:45:46;;;;;;;3.15;2.95;;;;;;;;;;5097731;28;20244;-73
2023/02/19 10:48:26;;;;;;;1.80;1.70;;;;;;;;;;5097026;28;20216;-72
2023/02/19 10:51:19;;;;;;;2.33;2.22;;;;;;;;;;5096812;28;20209;-74
2023/02/19 10:53:52;;;;;;;3.10;3.00;;;;;;;;;;5094446;28;20868;-74
2023/02/19 10:56:30;;;;;;;2.10;2.00;;;;;;;;;;5091652;28;20220;-73
2023/02/19 10:59:16;;;;;;;2.30;2.20;;;;;;;;;;5093205;28;20216;-73
2023/02/19 11:01:54;;;;;;;3.40;3.20;;;;;;;;;;5080178;28;20222;-73
2023/02/19 11:07:23;;;;;;;1.10;1.10;;;;;;;;;;5088167;28;20218;-74
2023/02/19 11:10:03;;;;;;;3.35;3.20;;;;;;;;;;5090684;28;20497;-74
2023/02/19 11:12:32;;;;;;;3.25;3.05;;;;;;;;;;5076662;28;20600;-74
2023/02/19 11:15:19;;;;;;;3.00;2.80;;;;;;;;;;5082373;28;20220;-75
2023/02/19 11:18:27;;;;;;;2.10;2.00;;;;;;;;;;5073059;28;20256;-74
2023/02/19 11:21:01;;;;;;;2.60;2.50;;;;;;;;;;5011838;28;20591;-74
2023/02/19 11:23:52;;;;;;;2.88;2.67;;;;;;;;;;5076429;28;20286;-74
2023/02/19 11:26:23;;;;;;;1.65;1.60;;;;;;;;;;5098133;28;20294;-75
2023/02/19 11:28:57;;;;;;;1.45;1.45;;;;;;;;;;5094203;28;20216;-76
2023/02/19 11:31:42;;;;;;;2.35;2.25;;;;;;;;;;5082141;28;20312;-75
2023/02/19 11:34:29;;;;;;;1.88;1.77;;;;;;;;;;5081486;28;20322;-74
2023/02/19 11:37:14;;;;;;;1.70;1.60;;;;;;;;;;5082853;28;20219;-75
2023/02/19 11:39:56;;;;;;;1.02;1.02;;;;;;;;;;5091510;28;20213;-73
2023/02/19 11:42:59;;;;;;;5.05;4.75;;;;;;;;;;5080420;28;20632;-73
2023/02/19 11:45:31;;;;;;;1.90;1.80;;;;;;;;;;5086097;28;20209;-74
2023/02/19 11:48:16;;;;;;;4.75;4.47;;;;;;;;;;5088592;28;20238;-73
2023/02/19 11:51:03;;;;;;;3.30;3.20;;;;;;;;;;5089555;28;20762;-75
2023/02/19 11:53:50;;;;;;;5.00;4.80;;;;;;;;;;5094770;28;20217;-72
2023/02/19 11:56:22;;;;;;;2.75;2.63;;;;;;;;;;5087637;28;20215;-75
2023/02/19 12:02:19;;;;;;;2.35;2.25;;;;;;;;;;5092358;28;20212;-72
2023/02/19 12:05:21;;;;;;;4.20;3.90;;;;;;;;;;5079812;28;20241;-74
2023/02/19 12:08:16;;;;;;;2.72;2.63;;;;;;;;;;5075099;28;20685;-74
2023/02/19 12:11:00;;;;;;;1.45;1.45;;;;;;;;;;5065730;28;20600;-75
2023/02/19 12:13:37;;;;;;;3.58;3.40;;;;;;;;;;5085526;28;20238;-74
2023/02/19 12:16:20;;;;;;;2.75;2.65;;;;;;;;;;5087116;28;20601;-74
2023/02/19 12:18:59;;;;;;;1.85;1.80;;;;;;;;;;5093806;28;20219;-75
2023/02/19 12:21:34;;;;;;;2.45;2.35;;;;;;;;;;5088239;28;20224;-75
2023/02/19 12:24:30;;;;;;;2.22;2.13;;;;;;;;;;5094602;28;20224;-74
2023/02/19 12:27:13;;;;;;;4.13;3.83;;;;;;;;;;5089231;28;20216;-75
2023/02/19 12:29:55;;;;;;;3.22;3.05;;;;;;;;;;5092427;28;20231;-75
2023/02/19 12:35:33;;;;;;;4.13;3.92;;;;;;;;;;5033667;28;20209;-74
2023/02/19 12:38:08;;;;;;;1.77;1.67;;;;;;;;;;5079429;28;20225;-75
2023/02/19 12:40:43;;;;;;;1.58;1.52;;;;;;;;;;5071956;28;20209;-73
2023/02/19 12:43:20;;;;;;;3.42;3.22;;;;;;;;;;5086371;28;20234;-73
2023/02/19 12:45:56;;;;;;;4.38;4.10;;;;;;;;;;5091765;28;20658;-73
2023/02/19 12:48:48;;;;;;;;;;;;;;;;;;;;;
2023/02/19 12:51:27;;;;;;;1.25;1.25;;;;;;;;;;5095215;28;20237;-73
2023/02/19 13:00:02;;;;;;;2.80;2.60;;;;;;;;;;5078191;28;20323;-75
2023/02/19 13:02:32;;;;;;;4.25;4.05;;;;;;;;;;5101827;28;20219;-74
2023/02/19 13:05:13;;;;;;;2.15;2.05;;;;;;;;;;5104495;28;20224;-75
2023/02/19 13:07:51;;;;;;;2.35;2.25;;;;;;;;;;5092362;28;20215;-76
2023/02/19 13:10:32;;;;;;;1.05;1.05;;;;;;;;;;5100594;28;20236;-75
2023/02/19 13:13:04;;;;;;;1.95;1.85;;;;;;;;;;5081769;28;20703;-74
2023/02/19 13:15:39;;;;;;;2.33;2.22;;;;;;;;;;5098633;28;20224;-73
2023/02/19 13:18:14;;;;;;;1.60;1.60;;;;;;;;;;5099315;28;20283;-74
2023/02/19 13:20:54;;;;;;;3.75;3.55;;;;;;;;;;5096678;28;20212;-75
2023/02/19 13:26:19;;;;;;;2.08;1.98;;;;;;;;;;5078824;28;20216;-76
2023/02/19 13:28:58;;;;;;;3.70;3.50;;;;;;;;;;5091750;28;20224;-75
2023/02/19 13:31:39;;;;;;;1.17;1.17;;;;;;;;;;5095241;28;20599;-75
2023/02/19 13:34:17;;;;;;;3.95;3.72;;;;;;;;;;5098731;28;20615;-73
2023/02/19 13:36:45;;;;;;;2.70;2.60;;;;;;;;;;5097740;28;20211;-76
2023/02/19 13:39:17;;;;;;;2.75;2.65;;;;;;;;;;5079499;28;20557;-74
2023/02/19 13:41:57;;;;;;;2.17;2.08;;;;;;;;;;5097260;28;20220;-74
2023/02/19 13:44:29;;;;;;;3.10;3.00;;;;;;;;;;5096615;28;20235;-72
2023/02/19 13:46:58;;;;;;;2.10;2.00;;;;;;;;;;5091683;28;20658;-74
2023/02/19 13:49:38;;;;;;;1.17;1.17;;;;;;;;;;5092305;28;20220;-74
2023/02/19 13:52:32;;;;;;;2.30;2.20;;;;;;;;;;5078997;28;20220;-74
2023/02/19 13:55:17;;;;;;;1.58;1.52;;;;;;;;;;5082381;28;20232;-74
2023/02/19 13:57:47;;;;;;;2.65;2.55;;;;;;;;;;5093528;28;20600;-75
2023/02/19 14:00:32;;;;;;;3.10;2.95;;;;;;;;;;5100273;28;20226;-75
2023/02/19 14:03:20;;;;;;;5.35;5.05;;;;;;;;;;5096929;28;20220;-74
2023/02/19 14:06:04;;;;;;;3.78;3.58;;;;;;;;;;5097224;28;20346;-73
2023/02/19 14:09:02;;;;;;;2.78;2.67;;;;;;;;;;5087885;28;20251;-74
2023/02/19 14:11:51;;;;;;;2.72;2.55;;;;;;;;;;5092327;28;20235;-74
2023/02/19 14:17:39;;;;;;;2.85;2.67;;;;;;;;;;5089871;28;20248;-74
2023/02/19 14:23:16;;;;;;;1.83;1.73;;;;;;;;;;5093254;28;20219;-73
2023/02/19 14:25:57;;;;;;;3.47;3.28;;;;;;;;;;5091578;28;20219;-74
2023/02/19 14:28:36;;;;;;;1.73;1.63;;;;;;;;;;5091001;28;20329;-73
2023/02/19 14:31:20;;;;;;;3.40;3.20;;;;;;;;;;5096410;28;20244;-73
2023/02/19 14:34:08;;;;;;;3.42;3.22;;;;;;;;;;5096710;28;20277;-74
2023/02/19 14:36:43;;;;;;;2.60;2.50;;;;;;;;;;5089685;28;20220;-74
2023/02/19 14:39:20;;;;;;;1.45;1.45;;;;;;;;;;5096088;28;20220;-74
2023/02/19 14:41:59;;;;;;;2.20;2.10;;;;;;;;;;5096678;28;20228;-74
2023/02/19 14:44:43;;;;;;;3.90;3.70;;;;;;;;;;5094863;28;20224;-74
2023/02/19 14:47:19;;;;;;;2.25;2.15;;;;;;;;;;5095179;28;20216;-74
2023/02/19 14:49:51;;;;;;;2.85;2.75;;;;;;;;;;5084300;28;20308;-74
2023/02/19 14:52:27;;;;;;;2.58;2.47;;;;;;;;;;5078919;28;20213;-74
2023/02/19 14:55:18;;;;;;;4.88;4.57;;;;;;;;;;5081132;28;20223;-73
2023/02/19 14:57:48;;;;;;;1.70;1.60;;;;;;;;;;5084267;28;20703;-73
2023/02/19 15:03:45;;;;;;;3.08;2.88;;;;;;;;;;5074302;28;20302;-75
2023/02/19 15:06:27;;;;;;;4.32;4.03;;;;;;;;;;5083188;28;20635;-73
2023/02/19 15:12:07;;;;;;;6.22;5.65;;;;;;;;;;5070515;28;20276;-73
2023/02/19 15:14:39;;;;;;;3.20;2.97;;;;;;;;;;5065989;28;20227;-73
2023/02/19 15:17:16;;;;;;;2.92;2.72;;;;;;;;;;5072991;28;20217;-74
2023/02/19 15:20:16;;;;;;;1.35;1.35;;;;;;;;;;5075406;28;20220;-73
2023/02/19 15:23:16;;;;;;;2.50;2.40;;;;;;;;;;5082911;28;20212;-74
2023/02/19 15:26:14;;;;;;;2.42;2.33;;;;;;;;;;5095884;28;20231;-73
2023/02/19 15:28:44;;;;;;;3.85;3.65;;;;;;;;;;5095266;28;20220;-73
2023/02/19 15:31:20;;;;;;;3.63;3.42;;;;;;;;;;5095678;28;20238;-73
2023/02/19 15:34:03;;;;;;;2.25;2.15;;;;;;;;;;5096107;28;20592;-74
2023/02/19 15:37:00;;;;;;;2.65;2.47;;;;;;;;;;5095808;28;20674;-73
2023/02/19 15:39:40;;;;;;;2.42;2.33;;;;;;;;;;5096381;28;20277;-75
2023/02/19 15:42:29;;;;;;;1.75;1.65;;;;;;;;;;5096425;28;20243;-73
2023/02/19 15:45:10;;;;;;;3.53;3.33;;;;;;;;;;5094920;28;20231;-73
2023/02/19 15:47:51;;;;;;;2.03;1.92;;;;;;;;;;5096082;28;20504;-73
2023/02/19 15:53:19;;;;;;;2.40;2.30;;;;;;;;;;5083893;28;20225;-74
2023/02/19 15:56:11;;;;;;;1.92;1.83;;;;;;;;;;5079468;28;20284;-74
2023/02/19 15:58:55;;;;;;;0.95;0.95;;;;;;;;;;5080065;28;20478;-74
2023/02/19 16:01:26;;;;;;;3.10;2.90;;;;;;;;;;5079397;28;20224;-74
2023/02/19 16:03:54;;;;;;;2.10;2.00;;;;;;;;;;5079698;28;20225;-73
2023/02/19 16:06:36;;;;;;;1.40;1.40;;;;;;;;;;5077754;28;20232;-74
2023/02/19 16:09:07;;;;;;;1.25;1.25;;;;;;;;;;5078553;28;20216;-74
2023/02/19 16:11:40;;;;;;;4.30;3.97;;;;;;;;;;5076272;28;20643;-74
2023/02/19 16:14:23;;;;;;;3.17;2.97;;;;;;;;;;5077610;28;20236;-73
2023/02/19 16:17:07;;;;;;;6.55;6.13;;;;;;;;;;5060789;28;20626;-74
2023/02/19 16:25:31;;;;;;;3.85;3.55;;;;;;;;;;5067625;28;20220;-74
2023/02/19 16:28:28;;;;;;;1.88;1.77;;;;;;;;;;5079317;28;20219;-73
2023/02/19 16:31:47;;;;;;;2.85;2.65;;;;;;;;;;5061004;28;20279;-74
2023/02/19 16:34:51;;;;;;;1.77;1.67;;;;;;;;;;5069171;28;20223;-72
2023/02/19 16:37:59;;;;;;;4.15;3.85;;;;;;;;;;5065536;28;20548;-73